Terminal Aerodrome Forecast
Issued by NWS

Home | Current Version | Previous Version | Text Only | Print | Product List | Glossary On
Versions: 1 2 3 4 5 6 7 8 9 10 11 12 13 14 15 16
000
FTUS43 KDTX 260525
TAFYIP
TAF
KYIP 260525Z 2606/2706 VRB03KT P6SM SCT150 BKN250
     FM261000 00000KT 4SM BR SCT250
     FM261300 20007KT P6SM FEW250
     FM262300 18006KT P6SM SCT060 SCT150=

USA.gov is the U.S. government's official web portal to all federal, state and local government web resources and services.